Time;durP1;ratioP1;P1;durP2;ratioP2;P2;SDS_P1;SDS_P2;PMS_P1;PMS_P2;Temp;Humidity;BMP_temperature;BMP_pressure;BME280_temperature;BME280_humidity;BME280_pressure;Samples;Min_cycle;Max_cycle;Signal;HPM_P1;HPM_P2
2022/12/05 00:01:58;;;;;;;21.73;14.80;;;;;;;;;;5073248;28;20446;-75
2022/12/05 00:04:26;;;;;;;22.13;14.63;;;;;;;;;;5072144;28;20452;-75
2022/12/05 00:06:53;;;;;;;24.97;15.40;;;;;;;;;;5072918;28;20492;-75
2022/12/05 00:09:20;;;;;;;20.13;14.60;;;;;;;;;;5070905;28;20472;-77
2022/12/05 00:11:47;;;;;;;22.70;15.70;;;;;;;;;;5071190;28;20449;-74
2022/12/05 00:14:14;;;;;;;22.70;14.30;;;;;;;;;;5070617;28;20467;-75
2022/12/05 00:16:42;;;;;;;23.57;15.17;;;;;;;;;;5071172;28;20944;-74
2022/12/05 00:19:12;;;;;;;22.97;14.77;;;;;;;;;;5071038;28;20454;-73
2022/12/05 00:21:39;;;;;;;25.00;17.17;;;;;;;;;;5070940;28;20448;-76
2022/12/05 00:24:07;;;;;;;23.63;15.43;;;;;;;;;;5070161;28;20440;-74
2022/12/05 00:26:34;;;;;;;21.97;15.67;;;;;;;;;;5070368;28;20481;-74
2022/12/05 00:29:01;;;;;;;22.97;15.83;;;;;;;;;;5070749;28;20447;-75
2022/12/05 00:31:28;;;;;;;26.50;16.73;;;;;;;;;;5070600;28;20444;-75
2022/12/05 00:33:56;;;;;;;22.87;15.50;;;;;;;;;;5069835;28;20452;-75
2022/12/05 00:36:25;;;;;;;22.83;14.70;;;;;;;;;;5070596;28;20499;-74
2022/12/05 00:38:53;;;;;;;23.60;15.40;;;;;;;;;;5070022;28;20993;-75
2022/12/05 00:41:21;;;;;;;21.60;14.47;;;;;;;;;;5070503;28;20452;-73
2022/12/05 00:43:49;;;;;;;25.40;15.30;;;;;;;;;;5067866;28;20436;-74
2022/12/05 00:46:17;;;;;;;20.00;14.87;;;;;;;;;;5070127;28;20507;-74
2022/12/05 00:48:44;;;;;;;21.87;15.20;;;;;;;;;;5070149;28;20447;-77
2022/12/05 00:51:12;;;;;;;24.80;15.40;;;;;;;;;;5070463;28;20446;-75
2022/12/05 00:53:41;;;;;;;22.63;15.57;;;;;;;;;;5069916;28;20437;-74
2022/12/05 00:56:09;;;;;;;19.93;13.30;;;;;;;;;;5070849;28;20470;-75
2022/12/05 00:58:36;;;;;;;23.13;14.90;;;;;;;;;;5070198;28;20440;-75
2022/12/05 01:01:06;;;;;;;21.20;13.80;;;;;;;;;;5065545;28;21119;-75
2022/12/05 01:03:33;;;;;;;18.83;14.20;;;;;;;;;;5061018;28;20520;-76
2022/12/05 01:06:00;;;;;;;19.60;13.93;;;;;;;;;;5066196;28;20483;-75
2022/12/05 01:08:27;;;;;;;21.87;14.83;;;;;;;;;;5069560;28;20439;-74
2022/12/05 01:10:56;;;;;;;21.00;13.90;;;;;;;;;;5066450;28;20449;-75
2022/12/05 01:13:24;;;;;;;19.37;12.77;;;;;;;;;;5059153;28;20444;-75
2022/12/05 01:15:51;;;;;;;18.67;13.47;;;;;;;;;;5069705;28;20467;-76
2022/12/05 01:18:18;;;;;;;20.07;13.60;;;;;;;;;;5069221;28;20435;-75
2022/12/05 01:20:45;;;;;;;22.43;12.97;;;;;;;;;;5069745;28;20444;-75
2022/12/05 01:23:13;;;;;;;21.90;13.30;;;;;;;;;;5069302;28;20519;-75
2022/12/05 01:25:40;;;;;;;19.40;14.73;;;;;;;;;;5070209;28;20486;-74
2022/12/05 01:28:08;;;;;;;21.57;14.07;;;;;;;;;;5066687;28;20536;-74
2022/12/05 01:30:38;;;;;;;21.03;13.97;;;;;;;;;;5059325;28;20465;-75
2022/12/05 01:33:05;;;;;;;22.80;14.97;;;;;;;;;;5065515;28;20448;-75
2022/12/05 01:35:32;;;;;;;21.33;14.00;;;;;;;;;;5053731;28;20476;-74
2022/12/05 01:38:00;;;;;;;18.60;12.97;;;;;;;;;;5059921;28;20456;-74
2022/12/05 01:40:27;;;;;;;17.10;12.60;;;;;;;;;;5071768;28;20780;-75
2022/12/05 01:42:54;;;;;;;18.70;14.43;;;;;;;;;;5061464;28;20483;-75
2022/12/05 01:45:26;;;;;;;20.93;13.67;;;;;;;;;;5058512;28;20498;-74
2022/12/05 01:47:54;;;;;;;17.83;12.33;;;;;;;;;;5059452;28;20481;-76
2022/12/05 01:50:22;;;;;;;16.67;12.70;;;;;;;;;;5069032;28;20454;-74
2022/12/05 01:52:49;;;;;;;18.53;13.50;;;;;;;;;;5073594;28;20514;-74
2022/12/05 01:55:17;;;;;;;17.77;13.20;;;;;;;;;;5074057;28;20462;-74
2022/12/05 01:57:45;;;;;;;17.93;11.80;;;;;;;;;;5073566;28;20461;-75
2022/12/05 02:00:14;;;;;;;20.43;13.00;;;;;;;;;;5073431;28;20554;-75
2022/12/05 02:02:43;;;;;;;20.60;13.00;;;;;;;;;;5073978;28;20448;-75
2022/12/05 02:05:12;;;;;;;17.83;12.77;;;;;;;;;;5074102;28;20471;-75
2022/12/05 02:07:42;;;;;;;17.20;12.57;;;;;;;;;;5074123;28;20447;-74
2022/12/05 02:10:09;;;;;;;14.00;10.90;;;;;;;;;;5096685;28;20437;-74
2022/12/05 02:12:37;;;;;;;15.33;11.20;;;;;;;;;;5097808;28;20433;-74
2022/12/05 02:15:09;;;;;;;16.90;11.10;;;;;;;;;;5062002;28;20502;-74
2022/12/05 02:17:43;;;;;;;15.63;11.07;;;;;;;;;;5064220;28;20449;-75
2022/12/05 02:20:19;;;;;;;16.00;12.33;;;;;;;;;;5055064;28;20432;-74
2022/12/05 02:23:10;;;;;;;18.67;12.10;;;;;;;;;;5060760;28;20454;-74
2022/12/05 02:25:42;;;;;;;18.33;12.60;;;;;;;;;;5048066;28;20487;-75
2022/12/05 02:28:21;;;;;;;15.63;11.33;;;;;;;;;;5063835;28;20447;-74
2022/12/05 02:30:53;;;;;;;19.13;11.43;;;;;;;;;;5062689;28;20435;-75
2022/12/05 02:33:21;;;;;;;18.20;12.73;;;;;;;;;;5059010;28;20441;-75
2022/12/05 02:35:53;;;;;;;20.47;12.63;;;;;;;;;;5055701;28;20463;-75
2022/12/05 02:38:25;;;;;;;17.30;12.00;;;;;;;;;;5055937;28;20444;-75
2022/12/05 02:40:57;;;;;;;18.90;12.27;;;;;;;;;;5058492;28;20431;-74
2022/12/05 02:43:27;;;;;;;17.83;11.40;;;;;;;;;;5057832;28;20459;-74
2022/12/05 02:45:58;;;;;;;18.60;12.70;;;;;;;;;;5057820;28;21043;-74
2022/12/05 02:48:28;;;;;;;18.53;12.17;;;;;;;;;;5054372;28;20448;-75
2022/12/05 02:50:57;;;;;;;19.30;13.53;;;;;;;;;;5055788;28;20465;-73
2022/12/05 02:53:26;;;;;;;21.17;14.00;;;;;;;;;;5055252;28;20448;-74
2022/12/05 02:55:54;;;;;;;17.93;12.10;;;;;;;;;;5055048;28;20482;-75
2022/12/05 02:58:23;;;;;;;21.57;13.40;;;;;;;;;;5056219;28;20992;-75
2022/12/05 03:00:51;;;;;;;19.40;13.63;;;;;;;;;;5056747;28;20448;-73
2022/12/05 03:03:21;;;;;;;20.67;13.83;;;;;;;;;;5055220;28;20449;-75
2022/12/05 03:05:51;;;;;;;21.50;12.63;;;;;;;;;;5056405;28;20491;-74
2022/12/05 03:08:22;;;;;;;24.03;14.63;;;;;;;;;;5054731;28;20437;-74
2022/12/05 03:10:50;;;;;;;22.33;13.63;;;;;;;;;;5052662;28;20479;-75
2022/12/05 03:13:21;;;;;;;21.43;13.90;;;;;;;;;;5069784;28;20444;-74
2022/12/05 03:15:49;;;;;;;20.97;12.73;;;;;;;;;;5069714;28;20983;-76
2022/12/05 03:18:18;;;;;;;20.77;13.30;;;;;;;;;;5071779;28;20450;-74
2022/12/05 03:20:48;;;;;;;19.97;13.50;;;;;;;;;;5071677;28;20812;-74
2022/12/05 03:23:18;;;;;;;17.63;12.70;;;;;;;;;;5070827;28;20445;-74
2022/12/05 03:25:51;;;;;;;21.23;14.33;;;;;;;;;;5071530;28;20464;-74
2022/12/05 03:28:22;;;;;;;19.33;12.67;;;;;;;;;;5072073;28;20946;-76
2022/12/05 03:30:53;;;;;;;20.53;12.80;;;;;;;;;;5072154;28;20454;-75
2022/12/05 03:33:22;;;;;;;22.53;15.17;;;;;;;;;;5071879;28;20427;-75
2022/12/05 03:35:56;;;;;;;21.43;13.60;;;;;;;;;;5072304;28;20461;-74
2022/12/05 03:38:26;;;;;;;21.77;13.10;;;;;;;;;;5072928;28;20490;-75
2022/12/05 03:40:54;;;;;;;24.80;15.53;;;;;;;;;;5071984;28;20464;-74
2022/12/05 03:43:23;;;;;;;19.30;13.60;;;;;;;;;;5071383;28;20465;-76
2022/12/05 03:45:53;;;;;;;21.07;14.27;;;;;;;;;;5072062;28;20884;-75
2022/12/05 03:48:25;;;;;;;20.30;13.87;;;;;;;;;;5072622;28;20448;-75
2022/12/05 03:50:54;;;;;;;20.70;13.30;;;;;;;;;;5072559;28;20760;-74
2022/12/05 03:53:24;;;;;;;21.67;14.67;;;;;;;;;;5070737;28;20440;-74
2022/12/05 03:55:55;;;;;;;20.97;12.97;;;;;;;;;;5071003;28;21485;-75
2022/12/05 03:58:26;;;;;;;19.60;13.47;;;;;;;;;;5071036;28;20944;-75
2022/12/05 04:00:54;;;;;;;20.80;14.27;;;;;;;;;;5070602;28;20446;-76
2022/12/05 04:03:23;;;;;;;20.13;13.80;;;;;;;;;;5071252;28;20943;-75
2022/12/05 04:05:51;;;;;;;21.13;13.70;;;;;;;;;;5071061;28;20481;-74
2022/12/05 04:08:21;;;;;;;22.97;13.60;;;;;;;;;;5070767;28;20967;-74
2022/12/05 04:10:50;;;;;;;22.13;14.80;;;;;;;;;;5070856;28;20444;-75
2022/12/05 04:13:18;;;;;;;21.60;13.77;;;;;;;;;;5066850;28;20445;-74
2022/12/05 04:18:38;;;;;;;21.83;12.97;;;;;;;;;;5032915;28;20433;-74
2022/12/05 04:26:33;;;;;;;17.97;13.07;;;;;;;;;;5050132;28;20483;-75
2022/12/05 04:29:05;;;;;;;19.50;13.60;;;;;;;;;;5050788;28;20441;-75
2022/12/05 04:31:34;;;;;;;17.93;13.90;;;;;;;;;;5050597;28;20447;-74
2022/12/05 04:34:04;;;;;;;23.23;14.57;;;;;;;;;;5057491;28;20472;-75
2022/12/05 04:36:33;;;;;;;19.67;14.53;;;;;;;;;;5074115;28;20449;-74
2022/12/05 04:39:04;;;;;;;23.70;14.60;;;;;;;;;;5068884;28;20448;-73
2022/12/05 04:41:33;;;;;;;19.00;13.77;;;;;;;;;;5052556;28;20855;-74
2022/12/05 04:44:02;;;;;;;25.50;13.90;;;;;;;;;;5050526;28;20450;-74
2022/12/05 04:46:29;;;;;;;23.77;13.27;;;;;;;;;;5050274;28;20485;-76
2022/12/05 04:48:58;;;;;;;24.43;14.27;;;;;;;;;;5050361;28;20959;-74
2022/12/05 04:51:27;;;;;;;19.13;13.03;;;;;;;;;;5050552;28;20441;-75
2022/12/05 04:53:55;;;;;;;19.77;13.93;;;;;;;;;;5050361;28;20452;-74
2022/12/05 04:56:25;;;;;;;20.80;14.43;;;;;;;;;;5050579;28;20476;-74
2022/12/05 04:58:52;;;;;;;21.10;13.50;;;;;;;;;;5050678;28;20441;-75
2022/12/05 05:01:21;;;;;;;22.10;13.73;;;;;;;;;;5050494;28;20456;-74
2022/12/05 05:03:51;;;;;;;21.37;13.70;;;;;;;;;;5050280;28;20930;-75
2022/12/05 05:06:18;;;;;;;18.00;12.43;;;;;;;;;;5050833;28;20503;-73
2022/12/05 05:08:49;;;;;;;15.50;12.30;;;;;;;;;;5050241;28;20459;-75
2022/12/05 05:11:18;;;;;;;21.53;13.60;;;;;;;;;;5050489;28;20494;-73
2022/12/05 05:13:46;;;;;;;16.73;12.30;;;;;;;;;;5051460;28;20970;-75
2022/12/05 05:16:16;;;;;;;18.00;13.30;;;;;;;;;;5054189;28;20465;-76
2022/12/05 05:18:44;;;;;;;20.67;14.93;;;;;;;;;;5054044;28;20532;-74
2022/12/05 05:21:15;;;;;;;19.17;14.30;;;;;;;;;;5053903;28;20447;-75
2022/12/05 05:23:42;;;;;;;18.53;12.83;;;;;;;;;;5053295;28;20803;-75
2022/12/05 05:26:09;;;;;;;14.97;12.67;;;;;;;;;;5057035;28;21071;-73
2022/12/05 05:28:36;;;;;;;17.77;13.10;;;;;;;;;;5059089;28;20725;-74
2022/12/05 05:31:05;;;;;;;19.13;13.17;;;;;;;;;;5060207;28;20444;-74
2022/12/05 05:33:32;;;;;;;17.67;12.60;;;;;;;;;;5061009;28;20445;-75
2022/12/05 05:36:02;;;;;;;18.23;12.70;;;;;;;;;;5061009;28;20853;-74
2022/12/05 05:38:29;;;;;;;22.43;13.90;;;;;;;;;;5058618;28;20449;-75
2022/12/05 05:40:56;;;;;;;19.20;13.03;;;;;;;;;;5054233;28;20461;-75
2022/12/05 05:43:23;;;;;;;17.87;13.20;;;;;;;;;;5055694;28;20950;-76
2022/12/05 05:45:50;;;;;;;21.27;13.70;;;;;;;;;;5058444;28;20457;-74
2022/12/05 05:48:18;;;;;;;20.80;13.87;;;;;;;;;;5053964;28;20491;-74
2022/12/05 05:50:45;;;;;;;20.17;13.53;;;;;;;;;;5053816;28;20822;-74
2022/12/05 05:53:13;;;;;;;19.10;13.17;;;;;;;;;;5053944;28;20963;-75
2022/12/05 05:55:40;;;;;;;19.80;14.33;;;;;;;;;;5055033;28;20472;-74
2022/12/05 05:58:07;;;;;;;19.00;13.77;;;;;;;;;;5057188;28;20453;-76
2022/12/05 06:00:34;;;;;;;15.30;12.43;;;;;;;;;;5057448;28;20939;-76
2022/12/05 06:03:01;;;;;;;22.43;14.70;;;;;;;;;;5055295;28;20450;-76
2022/12/05 06:05:30;;;;;;;22.47;12.67;;;;;;;;;;5057649;28;20473;-75
2022/12/05 06:07:57;;;;;;;17.77;12.63;;;;;;;;;;5055574;28;21002;-75
2022/12/05 06:10:24;;;;;;;15.97;12.97;;;;;;;;;;5052325;28;20441;-75
2022/12/05 06:12:51;;;;;;;25.27;14.17;;;;;;;;;;5051777;28;20456;-76
2022/12/05 06:15:18;;;;;;;19.73;14.17;;;;;;;;;;5071795;28;20464;-75
2022/12/05 06:17:45;;;;;;;19.23;12.70;;;;;;;;;;5073303;28;20440;-76
2022/12/05 06:20:13;;;;;;;19.53;14.00;;;;;;;;;;5072648;28;20440;-74
2022/12/05 06:22:41;;;;;;;20.53;13.07;;;;;;;;;;5072186;28;20449;-75
2022/12/05 06:25:09;;;;;;;22.03;15.47;;;;;;;;;;5072168;28;20468;-75
2022/12/05 06:27:36;;;;;;;19.13;14.20;;;;;;;;;;5072120;28;20498;-76
2022/12/05 06:30:04;;;;;;;22.63;14.87;;;;;;;;;;5072517;28;20444;-74
2022/12/05 06:32:31;;;;;;;19.27;13.40;;;;;;;;;;5071664;28;20443;-73
2022/12/05 06:34:58;;;;;;;19.57;14.30;;;;;;;;;;5072183;28;20467;-76
2022/12/05 06:37:25;;;;;;;22.30;13.80;;;;;;;;;;5072555;28;20444;-77
2022/12/05 06:39:54;;;;;;;19.17;13.27;;;;;;;;;;5072005;28;20441;-75
2022/12/05 06:42:21;;;;;;;19.50;13.60;;;;;;;;;;5071823;28;20456;-74
2022/12/05 06:44:48;;;;;;;23.30;16.60;;;;;;;;;;5071110;28;20468;-77
2022/12/05 06:47:15;;;;;;;25.03;16.27;;;;;;;;;;5072777;28;20479;-74
2022/12/05 06:49:42;;;;;;;18.27;13.47;;;;;;;;;;5072196;28;20447;-75
2022/12/05 06:52:12;;;;;;;19.93;13.47;;;;;;;;;;5076916;28;20459;-77
2022/12/05 06:54:39;;;;;;;17.13;12.90;;;;;;;;;;5073780;28;20468;-75
2022/12/05 06:57:08;;;;;;;18.27;13.27;;;;;;;;;;5071166;28;20444;-76
2022/12/05 06:59:35;;;;;;;21.13;13.40;;;;;;;;;;5071269;28;20963;-76
2022/12/05 07:02:01;;;;;;;17.07;12.87;;;;;;;;;;5071182;28;20496;-74
2022/12/05 07:04:28;;;;;;;14.57;11.43;;;;;;;;;;5071002;28;20447;-74
2022/12/05 07:06:56;;;;;;;14.67;12.43;;;;;;;;;;5040698;28;1029285;-74
2022/12/05 07:09:44;;;;;;;17.07;11.87;;;;;;;;;;5095436;28;20207;-74
2022/12/05 07:12:13;;;;;;;13.90;11.13;;;;;;;;;;5097394;28;20456;-74
2022/12/05 07:14:40;;;;;;;15.30;11.77;;;;;;;;;;5057719;28;20453;-76
2022/12/05 07:17:07;;;;;;;14.20;11.07;;;;;;;;;;5052295;28;20448;-74
2022/12/05 07:19:34;;;;;;;15.80;11.60;;;;;;;;;;5051552;28;20455;-76
2022/12/05 07:22:01;;;;;;;16.87;12.97;;;;;;;;;;5051622;28;20442;-77
2022/12/05 07:24:28;;;;;;;17.63;12.10;;;;;;;;;;5050978;28;20450;-76
2022/12/05 07:26:55;;;;;;;15.40;11.47;;;;;;;;;;5051852;28;21014;-76
2022/12/05 07:29:24;;;;;;;17.17;12.30;;;;;;;;;;5051585;28;20441;-75
2022/12/05 07:31:51;;;;;;;16.47;12.03;;;;;;;;;;5051928;28;20447;-76
2022/12/05 07:34:18;;;;;;;16.33;12.60;;;;;;;;;;5050891;28;20453;-76
2022/12/05 07:36:45;;;;;;;15.30;11.63;;;;;;;;;;5050502;28;20445;-76
2022/12/05 07:39:12;;;;;;;20.07;12.60;;;;;;;;;;5052238;28;20481;-75
2022/12/05 07:41:39;;;;;;;14.83;11.83;;;;;;;;;;5051244;28;20930;-76
2022/12/05 07:44:07;;;;;;;16.37;12.27;;;;;;;;;;5051026;28;20933;-75
2022/12/05 07:46:36;;;;;;;15.63;11.53;;;;;;;;;;5053031;28;20473;-76
2022/12/05 07:49:03;;;;;;;15.00;11.57;;;;;;;;;;5053739;28;20481;-76
2022/12/05 07:51:30;;;;;;;20.90;12.00;;;;;;;;;;5052104;28;20455;-76
2022/12/05 07:53:57;;;;;;;15.13;12.23;;;;;;;;;;5051260;28;20445;-75
2022/12/05 07:56:24;;;;;;;16.03;12.90;;;;;;;;;;5051601;28;20483;-75
2022/12/05 07:58:51;;;;;;;17.30;13.03;;;;;;;;;;5051764;28;20437;-75
2022/12/05 08:01:19;;;;;;;14.07;11.70;;;;;;;;;;5051069;28;20956;-75
2022/12/05 08:03:48;;;;;;;14.87;12.20;;;;;;;;;;5052412;28;20491;-74
2022/12/05 08:06:16;;;;;;;18.27;13.20;;;;;;;;;;5053284;28;20476;-75
2022/12/05 08:08:44;;;;;;;17.97;13.90;;;;;;;;;;5051803;28;20492;-75
2022/12/05 08:11:12;;;;;;;14.90;12.57;;;;;;;;;;5052115;28;20453;-75
2022/12/05 08:13:40;;;;;;;15.50;12.10;;;;;;;;;;5056619;28;20796;-75
2022/12/05 08:16:08;;;;;;;18.17;12.10;;;;;;;;;;5070520;28;20839;-76
2022/12/05 08:18:35;;;;;;;15.93;11.90;;;;;;;;;;5070890;28;20468;-76
2022/12/05 08:21:04;;;;;;;13.50;11.23;;;;;;;;;;5070476;28;20445;-74
2022/12/05 08:23:31;;;;;;;18.57;12.27;;;;;;;;;;5073328;28;20441;-76
2022/12/05 08:26:01;;;;;;;17.83;12.43;;;;;;;;;;5077481;28;20496;-76
2022/12/05 08:28:28;;;;;;;16.63;13.23;;;;;;;;;;5071541;28;20537;-76
2022/12/05 08:30:55;;;;;;;18.13;13.43;;;;;;;;;;5072133;28;20441;-76
2022/12/05 08:33:22;;;;;;;15.57;12.50;;;;;;;;;;5071130;28;20444;-77
2022/12/05 08:35:49;;;;;;;14.70;11.93;;;;;;;;;;5071874;28;20465;-75
2022/12/05 08:38:18;;;;;;;14.30;11.23;;;;;;;;;;5073097;28;20448;-76
2022/12/05 08:40:46;;;;;;;13.30;11.43;;;;;;;;;;5072462;28;20453;-75
2022/12/05 08:43:13;;;;;;;15.40;10.90;;;;;;;;;;5074478;28;20452;-76
2022/12/05 08:45:40;;;;;;;11.83;10.47;;;;;;;;;;5076861;28;20492;-75
2022/12/05 08:48:07;;;;;;;11.60;9.93;;;;;;;;;;5072755;28;20469;-75
2022/12/05 08:50:34;;;;;;;14.07;10.53;;;;;;;;;;5071241;28;20456;-75
2022/12/05 08:53:01;;;;;;;12.60;10.73;;;;;;;;;;5069938;28;20440;-76
2022/12/05 08:55:29;;;;;;;13.23;10.10;;;;;;;;;;5071295;28;20491;-75
2022/12/05 08:57:56;;;;;;;11.37;10.17;;;;;;;;;;5072606;28;20955;-74
2022/12/05 09:00:24;;;;;;;11.63;10.40;;;;;;;;;;5074633;28;20439;-76
2022/12/05 09:02:51;;;;;;;13.67;10.60;;;;;;;;;;5073126;28;20475;-75
2022/12/05 09:05:18;;;;;;;12.53;9.93;;;;;;;;;;5074412;28;20487;-76
2022/12/05 09:07:46;;;;;;;12.17;10.87;;;;;;;;;;5074940;28;20483;-75
2022/12/05 09:10:13;;;;;;;11.57;10.13;;;;;;;;;;5071771;28;20444;-76
2022/12/05 09:12:41;;;;;;;11.70;9.90;;;;;;;;;;5070457;28;20449;-74
2022/12/05 09:15:09;;;;;;;14.53;11.20;;;;;;;;;;5052924;28;20476;-76
2022/12/05 09:17:36;;;;;;;13.13;9.80;;;;;;;;;;5051256;28;20449;-74
2022/12/05 09:20:04;;;;;;;10.57;9.57;;;;;;;;;;5051365;28;20456;-76
2022/12/05 09:22:32;;;;;;;12.43;10.43;;;;;;;;;;5050201;28;20452;-75
2022/12/05 09:24:59;;;;;;;12.80;10.37;;;;;;;;;;5050542;28;20464;-76
2022/12/05 09:27:26;;;;;;;14.40;10.27;;;;;;;;;;5050320;28;20736;-76
2022/12/05 09:29:55;;;;;;;12.70;11.40;;;;;;;;;;5050543;28;20441;-76
2022/12/05 09:32:22;;;;;;;12.00;10.80;;;;;;;;;;5050478;28;20913;-76
2022/12/05 09:34:49;;;;;;;11.17;10.07;;;;;;;;;;5049684;28;20465;-76
2022/12/05 09:37:17;;;;;;;15.57;10.60;;;;;;;;;;5050508;28;20945;-74
2022/12/05 09:39:44;;;;;;;10.27;8.93;;;;;;;;;;5050518;28;20449;-74
2022/12/05 09:42:22;;;;;;;12.17;9.70;;;;;;;;;;5050261;28;20944;-75
2022/12/05 09:45:10;;;;;;;11.30;9.67;;;;;;;;;;5049727;28;20469;-77
2022/12/05 09:47:43;;;;;;;19.13;11.07;;;;;;;;;;5047137;28;20496;-74
2022/12/05 09:50:14;;;;;;;10.80;9.70;;;;;;;;;;5050481;28;20907;-76
2022/12/05 09:52:44;;;;;;;10.40;8.83;;;;;;;;;;5049497;28;20449;-75
2022/12/05 09:55:12;;;;;;;10.70;9.13;;;;;;;;;;5050105;28;20472;-76
2022/12/05 09:57:43;;;;;;;14.27;9.90;;;;;;;;;;5051588;28;20434;-76
2022/12/05 10:00:11;;;;;;;10.87;9.70;;;;;;;;;;5053082;28;20446;-74
2022/12/05 10:02:44;;;;;;;11.83;8.80;;;;;;;;;;5053357;28;20449;-77
2022/12/05 10:05:15;;;;;;;10.53;9.20;;;;;;;;;;5053829;28;20480;-76
2022/12/05 10:07:46;;;;;;;10.57;9.47;;;;;;;;;;5053796;28;20492;-76
2022/12/05 10:10:28;;;;;;;11.30;9.07;;;;;;;;;;5053785;28;20452;-75
2022/12/05 10:13:03;;;;;;;11.13;9.93;;;;;;;;;;5053519;28;20459;-76
2022/12/05 10:15:32;;;;;;;9.53;8.63;;;;;;;;;;5063425;28;20464;-76
2022/12/05 10:18:03;;;;;;;10.53;9.30;;;;;;;;;;5066643;28;20814;-74
2022/12/05 10:20:33;;;;;;;10.43;9.33;;;;;;;;;;5065918;28;20452;-76
2022/12/05 10:23:03;;;;;;;10.90;9.73;;;;;;;;;;5062907;28;20460;-76
2022/12/05 10:25:32;;;;;;;11.27;9.67;;;;;;;;;;5072693;28;20541;-75
2022/12/05 10:28:01;;;;;;;10.83;8.43;;;;;;;;;;5074093;28;20472;-75
2022/12/05 10:30:30;;;;;;;13.90;10.20;;;;;;;;;;5074553;28;20448;-76
2022/12/05 10:32:58;;;;;;;11.30;10.10;;;;;;;;;;5073539;28;20436;-76
2022/12/05 10:35:28;;;;;;;11.43;9.80;;;;;;;;;;5074658;28;20469;-76
2022/12/05 10:37:57;;;;;;;10.17;9.17;;;;;;;;;;5069259;28;20475;-76
2022/12/05 10:40:27;;;;;;;11.73;9.70;;;;;;;;;;5064814;28;20461;-75
2022/12/05 10:42:54;;;;;;;10.73;7.43;;;;;;;;;;5059104;28;20449;-76
2022/12/05 10:45:22;;;;;;;11.10;10.00;;;;;;;;;;5071774;28;20465;-75
2022/12/05 10:47:50;;;;;;;12.00;10.27;;;;;;;;;;5074518;28;20450;-75
2022/12/05 10:50:23;;;;;;;9.73;8.73;;;;;;;;;;5074048;28;20445;-76
2022/12/05 10:52:52;;;;;;;11.00;9.80;;;;;;;;;;5074615;28;20945;-76
2022/12/05 10:55:19;;;;;;;11.20;10.10;;;;;;;;;;5074794;28;20507;-76
2022/12/05 10:57:50;;;;;;;11.30;9.87;;;;;;;;;;5075481;28;21127;-76
2022/12/05 11:00:20;;;;;;;11.57;10.03;;;;;;;;;;5075148;28;20449;-77
2022/12/05 11:02:48;;;;;;;10.83;9.73;;;;;;;;;;5074546;28;20968;-77
2022/12/05 11:05:15;;;;;;;12.13;10.77;;;;;;;;;;5074751;28;20497;-75
2022/12/05 11:07:48;;;;;;;11.57;10.37;;;;;;;;;;5075766;28;20441;-76
2022/12/05 11:10:21;;;;;;;11.13;9.93;;;;;;;;;;5075980;28;20445;-75
2022/12/05 11:12:48;;;;;;;9.63;8.70;;;;;;;;;;5075732;28;20490;-76
2022/12/05 11:15:23;;;;;;;11.20;10.03;;;;;;;;;;5074022;28;20460;-75
2022/12/05 11:17:50;;;;;;;10.10;9.10;;;;;;;;;;5073756;28;20451;-75
2022/12/05 11:20:34;;;;;;;10.20;9.10;;;;;;;;;;5072448;28;20445;-77
2022/12/05 11:23:16;;;;;;;11.93;9.10;;;;;;;;;;5072725;28;20483;-75
2022/12/05 11:25:45;;;;;;;10.50;8.97;;;;;;;;;;5073028;28;20457;-76
2022/12/05 11:28:23;;;;;;;7.40;6.77;;;;;;;;;;5071942;28;20654;-76
2022/12/05 11:30:57;;;;;;;5.30;4.90;;;;;;;;;;5072232;28;20936;-77
2022/12/05 11:33:26;;;;;;;6.23;5.63;;;;;;;;;;5071095;28;20445;-75
2022/12/05 11:35:53;;;;;;;7.57;6.80;;;;;;;;;;5071745;28;20472;-76
2022/12/05 11:38:22;;;;;;;7.10;6.40;;;;;;;;;;5073431;28;20447;-76
2022/12/05 11:40:54;;;;;;;12.40;10.70;;;;;;;;;;5073100;28;20448;-76
2022/12/05 11:43:41;;;;;;;14.13;11.73;;;;;;;;;;5071769;28;20484;-76
2022/12/05 11:46:11;;;;;;;15.27;12.60;;;;;;;;;;5072610;28;20844;-75
2022/12/05 11:48:47;;;;;;;13.47;11.57;;;;;;;;;;5075834;28;20983;-76
2022/12/05 11:51:24;;;;;;;15.97;12.20;;;;;;;;;;5072539;28;20444;-77
2022/12/05 11:54:08;;;;;;;12.90;11.00;;;;;;;;;;5075107;28;20449;-77
2022/12/05 11:56:38;;;;;;;13.37;11.03;;;;;;;;;;5071870;28;20457;-76
2022/12/05 11:59:12;;;;;;;11.00;8.03;;;;;;;;;;5074935;28;20433;-75
2022/12/05 12:01:45;;;;;;;8.37;7.13;;;;;;;;;;5080857;28;20441;-76
2022/12/05 12:04:27;;;;;;;7.37;6.30;;;;;;;;;;5079982;28;20479;-77
2022/12/05 12:06:59;;;;;;;6.97;6.27;;;;;;;;;;5077875;28;20518;-75
2022/12/05 12:09:33;;;;;;;5.63;5.13;;;;;;;;;;5087202;28;20989;-76
2022/12/05 12:12:05;;;;;;;8.13;6.70;;;;;;;;;;5077966;28;20427;-77
2022/12/05 12:14:36;;;;;;;11.13;9.90;;;;;;;;;;5063496;28;20478;-76
2022/12/05 12:17:15;;;;;;;17.00;12.10;;;;;;;;;;5058405;28;20446;-76
2022/12/05 12:19:49;;;;;;;14.97;11.03;;;;;;;;;;5058498;28;20446;-75
2022/12/05 12:22:22;;;;;;;13.00;11.73;;;;;;;;;;5053410;28;20472;-76
2022/12/05 12:24:57;;;;;;;9.43;8.40;;;;;;;;;;5055239;28;20469;-76
2022/12/05 12:27:35;;;;;;;10.33;8.80;;;;;;;;;;5054410;28;20449;-77
2022/12/05 12:30:08;;;;;;;17.53;11.87;;;;;;;;;;5053279;28;20485;-75
2022/12/05 12:32:39;;;;;;;15.50;10.77;;;;;;;;;;5052860;28;20445;-77
2022/12/05 12:35:21;;;;;;;14.30;12.00;;;;;;;;;;5052645;28;20466;-77
2022/12/05 12:37:52;;;;;;;14.13;12.40;;;;;;;;;;5051284;28;20463;-75
2022/12/05 12:40:21;;;;;;;14.73;11.50;;;;;;;;;;5052920;28;20960;-76
2022/12/05 12:42:57;;;;;;;13.93;11.90;;;;;;;;;;5052674;28;20436;-76
2022/12/05 12:45:31;;;;;;;12.80;11.43;;;;;;;;;;5053102;28;20835;-77
2022/12/05 12:48:04;;;;;;;12.30;11.03;;;;;;;;;;5053718;28;20437;-76
2022/12/05 12:50:32;;;;;;;13.87;11.80;;;;;;;;;;5053806;28;20437;-77
2022/12/05 12:53:11;;;;;;;13.17;11.00;;;;;;;;;;5051823;28;20451;-77
2022/12/05 12:55:42;;;;;;;13.03;11.63;;;;;;;;;;5053255;28;20850;-77
2022/12/05 12:58:13;;;;;;;14.07;12.67;;;;;;;;;;5055476;28;20434;-78
2022/12/05 13:00:49;;;;;;;12.30;10.80;;;;;;;;;;5063880;28;20951;-77
2022/12/05 13:03:18;;;;;;;14.00;12.47;;;;;;;;;;5070576;28;20436;-75
2022/12/05 13:05:49;;;;;;;14.23;12.60;;;;;;;;;;5073646;28;20461;-77
2022/12/05 13:08:21;;;;;;;12.60;11.40;;;;;;;;;;5073874;28;20532;-76
2022/12/05 13:10:49;;;;;;;13.70;12.30;;;;;;;;;;5074651;28;20487;-77
2022/12/05 13:13:20;;;;;;;12.60;11.30;;;;;;;;;;5073583;28;20820;-75
2022/12/05 13:15:49;;;;;;;14.67;11.90;;;;;;;;;;5077875;28;21084;-77
2022/12/05 13:18:20;;;;;;;13.70;12.10;;;;;;;;;;5073314;28;20940;-76
2022/12/05 13:20:49;;;;;;;13.73;12.07;;;;;;;;;;5074201;28;20449;-75
2022/12/05 13:23:18;;;;;;;13.37;11.80;;;;;;;;;;5072460;28;20444;-77
2022/12/05 13:25:46;;;;;;;16.27;12.73;;;;;;;;;;5074022;28;20834;-77
2022/12/05 13:28:21;;;;;;;13.30;11.57;;;;;;;;;;5071947;28;20524;-75
2022/12/05 13:30:57;;;;;;;12.73;11.53;;;;;;;;;;5071624;28;20416;-76
2022/12/05 13:33:25;;;;;;;14.77;11.80;;;;;;;;;;5072480;28;20474;-76
2022/12/05 13:44:32;;;;;;;13.30;11.90;;;;;;;;;;5075343;28;20835;-77
2022/12/05 13:47:00;;;;;;;15.03;13.53;;;;;;;;;;5075498;28;20435;-77
2022/12/05 13:49:30;;;;;;;15.10;12.57;;;;;;;;;;5074903;28;20513;-78
2022/12/05 13:52:04;;;;;;;14.63;12.73;;;;;;;;;;5075554;28;20445;-80
2022/12/05 13:54:32;;;;;;;18.43;14.70;;;;;;;;;;5073765;28;20430;-78
2022/12/05 13:57:01;;;;;;;15.20;13.60;;;;;;;;;;5073976;28;20813;-78
2022/12/05 13:59:46;;;;;;;14.10;12.50;;;;;;;;;;5074530;28;20472;-79
2022/12/05 14:02:28;;;;;;;14.20;12.60;;;;;;;;;;5074978;28;20447;-78
2022/12/05 14:04:57;;;;;;;20.87;12.63;;;;;;;;;;5073191;28;20521;-78
2022/12/05 14:07:41;;;;;;;15.27;12.90;;;;;;;;;;5076428;28;20421;-78
2022/12/05 14:10:09;;;;;;;15.33;12.60;;;;;;;;;;5074332;28;20909;-79
2022/12/05 14:12:52;;;;;;;14.53;13.03;;;;;;;;;;5073931;28;20448;-78
2022/12/05 14:15:27;;;;;;;15.17;13.50;;;;;;;;;;5074488;28;20472;-78
2022/12/05 14:17:57;;;;;;;15.40;12.73;;;;;;;;;;5074366;28;20994;-78
2022/12/05 14:20:28;;;;;;;16.00;13.07;;;;;;;;;;5076342;28;20427;-77
2022/12/05 14:23:04;;;;;;;15.47;13.87;;;;;;;;;;5075369;28;20461;-78
2022/12/05 14:25:50;;;;;;;15.57;13.03;;;;;;;;;;5074843;28;20460;-78
2022/12/05 14:28:22;;;;;;;15.80;14.10;;;;;;;;;;5074095;28;20491;-78
2022/12/05 14:31:00;;;;;;;14.53;12.97;;;;;;;;;;5074198;28;20461;-78
2022/12/05 14:33:27;;;;;;;14.10;12.63;;;;;;;;;;5073478;28;20429;-78
2022/12/05 14:35:56;;;;;;;12.90;11.60;;;;;;;;;;5074974;28;20492;-79
2022/12/05 14:38:27;;;;;;;15.13;12.57;;;;;;;;;;5073910;28;20536;-78
2022/12/05 14:40:55;;;;;;;14.30;11.87;;;;;;;;;;5074131;28;20455;-78
2022/12/05 14:43:27;;;;;;;16.50;12.80;;;;;;;;;;5073829;28;20445;-78
2022/12/05 14:45:58;;;;;;;15.43;12.27;;;;;;;;;;5074376;28;20469;-78
2022/12/05 14:48:28;;;;;;;14.77;12.33;;;;;;;;;;5075768;28;20429;-78
2022/12/05 14:50:57;;;;;;;15.50;13.03;;;;;;;;;;5076670;28;20480;-78